Time;durP1;ratioP1;P1;durP2;ratioP2;P2;SDS_P1;SDS_P2;PMS_P1;PMS_P2;Temp;Humidity;BMP_temperature;BMP_pressure;BME280_temperature;BME280_humidity;BME280_pressure;Samples;Min_cycle;Max_cycle;Signal;HPM_P1;HPM_P2
2022/08/05 00:01:29;;;;;;;;;4.00;4.00;;;;;21.03;58.84;101596.94;5030535;28;8826;-64
2022/08/05 00:04:15;;;;;;;;;3.00;1.75;;;;;21.02;59.11;101604.31;5028977;28;8828;-66
2022/08/05 00:06:43;;;;;;;;;2.50;2.25;;;;;21.05;58.76;101616.69;5029859;28;8822;-66
2022/08/05 00:09:12;;;;;;;;;3.75;3.00;;;;;21.05;58.89;101628.47;5013375;28;8896;-66
2022/08/05 00:11:44;;;;;;;;;1.25;1.25;;;;;21.06;59.06;101621.06;5028398;28;9608;-67
2022/08/05 00:14:21;;;;;;;;;2.50;2.50;;;;;20.98;59.30;101611.34;5027370;28;8848;-67
2022/08/05 00:16:53;;;;;;;;;3.25;3.25;;;;;20.96;59.28;101608.88;5030020;28;8818;-67
2022/08/05 00:19:21;;;;;;;;;3.00;3.00;;;;;20.98;59.43;101614.09;5029803;28;8852;-65
2022/08/05 00:21:48;;;;;;;;;2.50;2.00;;;;;21.02;59.42;101612.53;5030214;28;8826;-66
2022/08/05 00:24:15;;;;;;;;;0.50;0.50;;;;;21.01;59.42;101615.50;5029638;28;8819;-65
2022/08/05 00:26:51;;;;;;;;;4.00;2.75;;;;;20.94;59.60;101612.91;5028865;28;8814;-66
2022/08/05 00:29:21;;;;;;;;;4.25;4.00;;;;;20.90;59.72;101609.84;5026847;28;9602;-65
2022/08/05 00:31:51;;;;;;;;;2.50;2.50;;;;;20.90;59.77;101606.25;5010016;28;8836;-66
2022/08/05 00:34:39;;;;;;;;;5.50;4.00;;;;;20.89;59.86;101604.63;5015895;28;8872;-67
2022/08/05 00:37:26;;;;;;;;;1.75;1.75;;;;;20.88;59.92;101595.56;5026015;28;8833;-67
2022/08/05 00:40:12;;;;;;;;;3.75;3.00;;;;;20.89;59.86;101599.13;5031766;28;8888;-67
2022/08/05 00:42:43;;;;;;;;;4.25;4.00;;;;;20.89;59.82;101613.66;5026626;28;8812;-66
2022/08/05 00:45:14;;;;;;;;;3.25;3.25;;;;;20.85;59.94;101617.13;5032879;28;8826;-67
2022/08/05 00:47:41;;;;;;;;;4.75;4.75;;;;;20.77;60.03;101610.13;5032924;28;8849;-67
2022/08/05 00:50:22;;;;;;;;;4.00;3.25;;;;;20.71;60.25;101611.94;5032371;28;8953;-66
2022/08/05 00:52:51;;;;;;;;;2.25;2.25;;;;;20.65;60.33;101601.97;5027419;28;8838;-67
2022/08/05 00:55:20;;;;;;;;;3.00;3.00;;;;;20.66;60.36;101613.72;5026400;28;8810;-67
2022/08/05 00:57:47;;;;;;;;;1.75;1.75;;;;;20.69;60.40;101613.25;5032022;28;8818;-66
2022/08/05 01:00:27;;;;;;;;;2.00;2.00;;;;;20.66;60.32;101611.00;5028541;28;8826;-66
2022/08/05 01:02:54;;;;;;;;;2.00;2.00;;;;;20.68;60.45;101595.19;5024569;28;8907;-65
2022/08/05 01:05:21;;;;;;;;;3.00;3.00;;;;;20.68;60.32;101606.13;5026501;28;8825;-65
2022/08/05 01:07:48;;;;;;;;;2.00;2.00;;;;;20.67;60.20;101599.00;5027714;28;8818;-66
2022/08/05 01:10:55;;;;;;;;;3.25;3.25;;;;;20.65;60.09;101609.34;5033371;28;8864;-66
2022/08/05 01:13:32;;;;;;;;;3.50;3.25;;;;;20.56;60.49;101611.63;5033283;28;8837;-66
2022/08/05 01:16:37;;;;;;;;;4.00;3.00;;;;;20.60;60.48;101609.25;5018230;28;8933;-66
2022/08/05 01:19:15;;;;;;;;;6.00;3.00;;;;;20.60;60.28;101609.25;5015990;28;8832;-66
2022/08/05 01:22:09;;;;;;;;;3.25;3.25;;;;;20.59;60.32;101608.41;5026382;28;8829;-65
2022/08/05 01:24:49;;;;;;;;;4.00;4.00;;;;;20.59;60.54;101611.16;5030238;28;8849;-66
2022/08/05 01:27:37;;;;;;;;;2.00;2.00;;;;;20.57;60.46;101607.81;5034484;28;8845;-66
2022/08/05 01:30:22;;;;;;;;;1.75;1.75;;;;;20.58;60.54;101601.28;5029115;28;8850;-67
2022/08/05 01:33:04;;;;;;;;;3.00;3.00;;;;;20.58;60.34;101611.38;5012576;28;9649;-66
2022/08/05 01:35:36;;;;;;;;;3.50;3.50;;;;;20.53;60.70;101624.94;5026685;28;9545;-67
2022/08/05 01:38:20;;;;;;;;;3.00;2.50;;;;;20.49;60.91;101616.38;5028629;28;8826;-65
2022/08/05 01:41:00;;;;;;;;;3.00;3.00;;;;;20.45;60.78;101612.44;5032370;28;9542;-67
2022/08/05 01:43:29;;;;;;;;;2.00;2.00;;;;;20.43;60.82;101615.44;5033756;28;8953;-65
2022/08/05 01:45:57;;;;;;;;;2.75;2.00;;;;;20.42;60.97;101621.16;5047505;28;8838;-66
2022/08/05 01:48:36;;;;;;;;;5.00;3.00;;;;;20.41;60.97;101627.66;5033484;28;8880;-65
2022/08/05 01:51:04;;;;;;;;;4.00;3.00;;;;;20.40;60.87;101623.28;5032305;28;8818;-66
2022/08/05 01:53:40;;;;;;;;;2.75;2.00;;;;;20.42;60.88;101632.09;5023723;28;8830;-65
2022/08/05 01:56:23;;;;;;;;;2.00;2.00;;;;;20.39;60.82;101641.59;5033754;28;8825;-66
2022/08/05 01:59:14;;;;;;;;;3.00;2.00;;;;;20.40;60.92;101631.47;5033179;28;8872;-64
2022/08/05 02:01:42;;;;;;;;;2.25;2.00;;;;;20.42;60.92;101635.66;5033453;28;8814;-66
2022/08/05 02:04:13;;;;;;;;;2.00;2.00;;;;;20.39;60.67;101635.31;5024718;28;8925;-65
2022/08/05 02:06:40;;;;;;;;;1.50;1.50;;;;;20.36;60.63;101631.13;5033240;28;8822;-66
2022/08/05 02:09:10;;;;;;;;;1.75;1.75;;;;;20.39;60.61;101629.84;5023184;28;8826;-67
2022/08/05 02:11:47;;;;;;;;;2.25;2.25;;;;;20.40;60.20;101636.97;5028204;28;8915;-65
2022/08/05 02:14:27;;;;;;;;;2.00;2.00;;;;;20.39;60.04;101624.38;5022724;28;8865;-65
2022/08/05 02:17:03;;;;;;;;;3.25;2.50;;;;;20.38;59.81;101623.53;5032864;28;8854;-66
2022/08/05 02:19:33;;;;;;;;;2.00;2.00;;;;;20.40;59.76;101620.53;5032509;28;8957;-65
2022/08/05 02:22:19;;;;;;;;;1.50;1.50;;;;;20.38;59.84;101623.53;5024802;28;8860;-64
2022/08/05 02:25:01;;;;;;;;;2.00;2.00;;;;;20.33;60.00;101617.09;5031989;28;8892;-66
2022/08/05 02:27:32;;;;;;;;;2.00;2.00;;;;;20.28;60.05;101619.75;5027466;28;8833;-65
2022/08/05 02:30:19;;;;;;;;;4.25;4.25;;;;;20.21;60.41;101617.94;5025405;28;8830;-65
2022/08/05 02:32:50;;;;;;;;;3.25;2.50;;;;;20.19;60.49;101617.38;5024018;28;8888;-64
2022/08/05 02:35:20;;;;;;;;;3.00;3.00;;;;;20.10;60.61;101618.81;5034932;28;8867;-65
2022/08/05 02:37:55;;;;;;;;;3.25;3.00;;;;;20.05;60.92;101615.94;5026905;28;8833;-65
2022/08/05 02:40:25;;;;;;;;;3.00;3.00;;;;;20.05;61.15;101610.47;5029705;28;8840;-64
2022/08/05 02:42:54;;;;;;;;;2.25;2.00;;;;;20.08;61.11;101607.28;5031903;28;8830;-65
2022/08/05 02:45:26;;;;;;;;;3.75;3.75;;;;;20.11;61.03;101616.91;5032000;28;8857;-66
2022/08/05 02:48:14;;;;;;;;;3.50;3.50;;;;;20.06;61.40;101612.16;5042597;28;8818;-65
2022/08/05 02:50:45;;;;;;;;;2.50;2.00;;;;;20.06;61.27;101608.59;5025860;28;8850;-66
2022/08/05 02:53:14;;;;;;;;;2.00;2.00;;;;;19.98;61.21;101617.97;5022444;28;8877;-66
2022/08/05 02:55:47;;;;;;;;;1.50;1.50;;;;;19.86;61.60;101608.97;5030383;28;8826;-65
2022/08/05 02:58:25;;;;;;;;;3.25;3.25;;;;;19.81;61.58;101617.88;5030632;28;8842;-64
2022/08/05 03:00:55;;;;;;;;;3.00;2.50;;;;;19.76;61.76;101607.63;5028202;28;8814;-65
2022/08/05 03:03:22;;;;;;;;;2.25;2.25;;;;;19.76;61.58;101606.78;5031477;28;9683;-65
2022/08/05 03:05:49;;;;;;;;;2.00;2.00;;;;;19.78;61.54;101601.94;5022953;28;8833;-64
2022/08/05 03:08:38;;;;;;;;;1.75;1.75;;;;;19.77;61.44;101600.28;5021149;28;8957;-64
2022/08/05 03:11:19;;;;;;;;;1.25;1.25;;;;;19.75;61.28;101597.78;5030850;28;8822;-65
2022/08/05 03:14:06;;;;;;;;;2.75;1.50;;;;;19.76;61.19;101602.16;5031423;28;8869;-65
2022/08/05 03:16:33;;;;;;;;;2.00;2.00;;;;;19.66;60.82;101604.66;5029769;28;9602;-67
2022/08/05 03:19:02;;;;;;;;;2.75;2.75;;;;;19.61;60.63;101595.50;5030147;28;8830;-64
2022/08/05 03:21:38;;;;;;;;;0.25;0.25;;;;;19.61;60.55;101601.81;5022570;28;8830;-66
2022/08/05 03:24:16;;;;;;;;;1.00;1.00;;;;;19.64;60.20;101605.94;5031479;28;8826;-65
2022/08/05 03:26:42;;;;;;;;;2.00;2.00;;;;;19.61;60.24;101609.16;5028388;28;9587;-65
2022/08/05 03:29:14;;;;;;;;;2.50;1.75;;;;;19.62;60.29;101613.56;5025287;28;8830;-64
2022/08/05 03:31:44;;;;;;;;;1.50;1.50;;;;;19.64;60.27;101620.44;5031608;28;8826;-64
2022/08/05 03:34:27;;;;;;;;;2.25;2.00;;;;;19.66;60.33;101606.56;5030411;28;8921;-64
2022/08/05 03:36:54;;;;;;;;;1.50;1.50;;;;;19.60;60.37;101616.47;5030926;28;8802;-65
2022/08/05 03:39:21;;;;;;;;;1.00;1.00;;;;;19.59;60.54;101619.47;5029374;28;8850;-66
2022/08/05 03:41:54;;;;;;;;;1.00;1.00;;;;;19.61;60.41;101618.19;5029719;28;8933;-65
2022/08/05 03:44:22;;;;;;;;;1.75;1.75;;;;;19.66;60.20;101614.75;5031030;28;8872;-65
2022/08/05 03:46:49;;;;;;;;;4.25;3.00;;;;;19.68;60.20;101610.69;5025975;28;8829;-66
2022/08/05 03:49:15;;;;;;;;;2.00;2.00;;;;;19.67;60.30;101609.06;5030165;28;8857;-65
2022/08/05 03:51:47;;;;;;;;;1.00;1.00;;;;;19.63;60.29;101605.13;5046222;28;8852;-63
2022/08/05 03:55:09;;;;;;;;;1.00;1.00;;;;;19.61;60.32;101618.19;5030852;28;8835;-66
2022/08/05 03:58:01;;;;;;;;;2.75;2.00;;;;;19.57;60.42;101625.16;5013546;28;8825;-64
2022/08/05 04:00:31;;;;;;;;;3.00;3.00;;;;;19.55;60.41;101619.09;5030277;28;8830;-65
2022/08/05 04:03:00;;;;;;;;;2.50;2.50;;;;;19.52;60.49;101631.31;5030996;28;8821;-67
2022/08/05 04:05:31;;;;;;;;;2.25;2.00;;;;;19.54;60.59;101633.00;5041959;28;8966;-66
2022/08/05 04:08:06;;;;;;;;;3.50;3.00;;;;;19.53;60.38;101621.25;5013050;28;8845;-66
2022/08/05 04:10:53;;;;;;;;;3.75;2.25;;;;;19.55;60.31;101623.72;5032464;28;8917;-65
2022/08/05 04:13:20;;;;;;;;;1.00;1.00;;;;;19.47;60.29;101617.53;5025542;28;8903;-66
2022/08/05 04:15:48;;;;;;;;;5.75;3.50;;;;;19.43;60.24;101632.72;5034752;28;8838;-66
2022/08/05 04:18:30;;;;;;;;;2.50;2.50;;;;;19.40;60.30;101625.00;5034689;28;8830;-66
2022/08/05 04:20:57;;;;;;;;;3.00;3.00;;;;;19.35;60.28;101624.03;5034486;28;9549;-65
2022/08/05 04:23:25;;;;;;;;;2.25;2.00;;;;;19.32;60.50;101619.03;5018368;28;9573;-66
2022/08/05 04:26:14;;;;;;;;;2.00;2.00;;;;;19.33;60.23;101613.38;5029082;28;8832;-66
2022/08/05 04:28:42;;;;;;;;;3.00;3.00;;;;;19.33;60.58;101616.09;5029451;28;8826;-66
2022/08/05 04:31:17;;;;;;;;;2.75;2.00;;;;;19.35;60.39;101616.69;5015720;28;8816;-66
2022/08/05 04:33:44;;;;;;;;;1.75;1.25;;;;;19.39;60.24;101628.78;5032404;28;8830;-66
2022/08/05 04:36:30;;;;;;;;;2.00;2.00;;;;;19.41;60.10;101629.41;5033451;28;8814;-67
2022/08/05 04:39:15;;;;;;;;;2.00;2.00;;;;;19.41;60.08;101634.88;5031978;28;8949;-66
2022/08/05 04:41:41;;;;;;;;;3.50;2.25;;;;;19.39;60.04;101636.16;5033797;28;8826;-64
2022/08/05 04:44:10;;;;;;;;;2.75;2.75;;;;;19.36;59.96;101637.44;5034338;28;8845;-65
2022/08/05 04:46:37;;;;;;;;;2.00;2.00;;;;;19.39;59.98;101636.16;5033540;28;8834;-62
2022/08/05 04:49:07;;;;;;;;;1.75;1.75;;;;;19.37;59.99;101639.13;5032736;28;8842;-64
2022/08/05 04:51:40;;;;;;;;;4.50;4.50;;;;;19.37;60.07;101635.56;5018107;28;8840;-64
2022/08/05 04:54:07;;;;;;;;;2.00;0.75;;;;;19.38;59.93;101643.53;5016321;28;8971;-64
2022/08/05 04:56:35;;;;;;;;;3.75;2.50;;;;;19.40;59.96;101643.28;5033512;28;8810;-64
2022/08/05 04:59:03;;;;;;;;;2.00;2.00;;;;;19.36;59.81;101631.97;5033889;28;8826;-64
2022/08/05 05:01:52;;;;;;;;;2.25;1.00;;;;;19.27;59.94;101636.94;5027606;28;8817;-63
2022/08/05 05:04:38;;;;;;;;;2.50;2.00;;;;;19.26;60.13;101638.03;5027940;28;8813;-63
2022/08/05 05:07:16;;;;;;;;;2.25;2.00;;;;;19.25;60.14;101635.53;5024284;28;9224;-64
2022/08/05 05:09:43;;;;;;;;;3.50;3.50;;;;;19.29;59.91;101634.00;5033516;28;8833;-63
2022/08/05 05:12:10;;;;;;;;;2.25;2.25;;;;;19.32;59.84;101643.59;5043975;28;8857;-64
2022/08/05 05:14:37;;;;;;;;;2.00;1.75;;;;;19.30;59.93;101632.94;5040442;28;8872;-63
2022/08/05 05:17:15;;;;;;;;;1.50;1.50;;;;;19.32;59.78;101632.69;5033174;28;8853;-64
2022/08/05 05:19:49;;;;;;;;;1.75;1.75;;;;;19.34;59.83;101630.56;5031377;28;9638;-64
2022/08/05 05:22:15;;;;;;;;;1.75;1.50;;;;;19.31;59.73;101633.75;5022668;28;8822;-64
2022/08/05 05:24:50;;;;;;;;;1.00;1.00;;;;;19.27;59.82;101645.13;5048722;28;8903;-65
2022/08/05 05:27:23;;;;;;;;;2.00;2.00;;;;;19.27;59.78;101647.88;5027512;28;8830;-63
2022/08/05 05:30:08;;;;;;;;;2.00;2.00;;;;;19.27;59.66;101644.31;5033499;28;8826;-64
2022/08/05 05:32:54;;;;;;;;;2.00;1.25;;;;;19.22;59.69;101657.84;5027738;28;8840;-64
2022/08/05 05:35:21;;;;;;;;;1.50;1.50;;;;;19.25;59.51;101643.72;5021760;28;8962;-64
2022/08/05 05:37:53;;;;;;;;;1.50;1.50;;;;;19.26;59.50;101648.94;5028450;28;8838;-66
2022/08/05 05:40:27;;;;;;;;;1.75;1.75;;;;;19.29;59.27;101646.81;5028072;28;8838;-64
2022/08/05 05:42:54;;;;;;;;;1.00;1.00;;;;;19.30;59.42;101649.31;5029617;28;8822;-65
2022/08/05 05:45:22;;;;;;;;;2.75;2.00;;;;;19.32;59.11;101646.34;5033489;28;8889;-65
2022/08/05 05:47:50;;;;;;;;;1.75;1.75;;;;;19.36;59.05;101642.06;5030231;28;8842;-64
2022/08/05 05:50:35;;;;;;;;;1.00;1.00;;;;;19.38;59.06;101651.72;5027235;28;8822;-65
2022/08/05 05:53:12;;;;;;;;;2.00;2.00;;;;;19.35;59.07;101657.63;5029700;28;8822;-64
2022/08/05 05:55:48;;;;;;;;;1.75;1.75;;;;;19.32;59.10;101649.91;5028753;28;8806;-65
2022/08/05 05:58:26;;;;;;;;;0.75;0.75;;;;;19.34;59.37;101641.50;5032614;28;8810;-65
2022/08/05 06:00:58;;;;;;;;;1.00;1.00;;;;;19.41;59.16;101647.69;5014041;28;8841;-65
2022/08/05 06:03:41;;;;;;;;;1.00;1.00;;;;;19.42;59.09;101646.63;5028456;28;8833;-66
2022/08/05 06:06:27;;;;;;;;;1.00;1.00;;;;;19.45;59.06;101646.16;5033137;28;8834;-66
2022/08/05 06:08:57;;;;;;;;;0.25;0.25;;;;;19.50;58.94;101643.56;5031541;28;8873;-64
2022/08/05 06:11:23;;;;;;;;;1.00;1.00;;;;;19.56;58.82;101653.53;5031966;28;8870;-64
2022/08/05 06:13:51;;;;;;;;;1.00;1.00;;;;;19.65;58.49;101656.81;5032840;28;9035;-65
2022/08/05 06:16:20;;;;;;;;;0.50;0.50;;;;;19.70;58.21;101655.03;5032680;28;8826;-64
2022/08/05 06:18:57;;;;;;;;;1.00;1.00;;;;;19.72;58.02;101662.97;5028855;28;8954;-64
2022/08/05 06:21:28;;;;;;;;;1.00;1.00;;;;;19.81;57.95;101666.19;5013124;28;8854;-66
2022/08/05 06:24:07;;;;;;;;;2.00;2.00;;;;;19.83;58.18;101661.34;5015227;28;8837;-64
2022/08/05 06:26:41;;;;;;;;;2.00;2.00;;;;;19.83;58.02;101662.16;5026844;28;8999;-65
2022/08/05 06:29:19;;;;;;;;;2.00;2.00;;;;;19.84;57.70;101666.56;5032288;28;8842;-66
2022/08/05 06:32:05;;;;;;;;;2.00;1.50;;;;;19.78;57.44;101672.16;5032043;28;8810;-65
2022/08/05 06:34:52;;;;;;;;;1.75;1.75;;;;;19.82;57.70;101662.41;5031657;28;8946;-66
2022/08/05 06:37:23;;;;;;;;;1.00;1.00;;;;;19.85;57.65;101672.84;5031245;28;9583;-65
2022/08/05 06:40:10;;;;;;;;;2.00;2.00;;;;;19.80;57.40;101681.75;5028499;28;8803;-65
2022/08/05 06:42:37;;;;;;;;;2.00;2.00;;;;;19.84;57.87;101679.38;5032572;28;8860;-65
2022/08/05 06:45:06;;;;;;;;;1.75;1.25;;;;;19.83;57.80;101685.94;5032304;28;8817;-65
2022/08/05 06:47:34;;;;;;;;;0.00;0.00;;;;;19.83;57.84;101688.66;5031759;28;8854;-65
2022/08/05 06:50:21;;;;;;;;;1.00;1.00;;;;;19.82;57.66;101695.19;5024613;28;8851;-64
2022/08/05 06:52:47;;;;;;;;;1.00;1.00;;;;;19.81;57.61;101696.25;5027484;28;8899;-65
2022/08/05 06:55:34;;;;;;;;;1.00;1.00;;;;;19.81;57.69;101693.50;5032161;28;8803;-64
2022/08/05 06:58:02;;;;;;;;;1.00;1.00;;;;;19.74;57.95;101694.47;5030306;28;8823;-64
2022/08/05 07:00:49;;;;;;;;;0.25;0.25;;;;;19.75;57.83;101687.91;5031044;28;8948;-65
2022/08/05 07:03:15;;;;;;;;;1.00;1.00;;;;;19.84;57.58;101693.88;5027645;28;8907;-64
2022/08/05 07:05:42;;;;;;;;;1.25;1.00;;;;;19.91;57.28;101691.03;5023254;28;8940;-65
2022/08/05 07:08:11;;;;;;;;;0.00;0.00;;;;;19.86;56.46;101688.19;5031370;28;8842;-65
2022/08/05 07:10:39;;;;;;;;;0.25;0.25;;;;;19.85;56.57;101686.50;5024977;28;8836;-65
2022/08/05 07:19:34;;;;;;;;;1.00;1.00;;;;;19.91;56.53;101704.72;5021464;28;8965;-66
2022/08/05 07:22:21;;;;;;;;;2.75;1.00;;;;;19.93;56.63;101706.16;5030534;28;9537;-66
2022/08/05 07:24:59;;;;;;;;;1.00;1.00;;;;;19.84;56.19;101707.53;5031894;28;8957;-66
2022/08/05 07:27:50;;;;;;;;;3.00;1.50;;;;;19.85;56.50;101719.28;5030645;28;8826;-65
2022/08/05 07:30:25;;;;;;;;;1.50;1.50;;;;;19.86;56.55;101719.06;5029546;28;8844;-65
2022/08/05 07:32:57;;;;;;;;;0.00;0.00;;;;;19.94;56.99;101724.19;5030586;28;8828;-66
2022/08/05 07:35:24;;;;;;;;;0.50;0.50;;;;;20.04;56.76;101715.41;5030741;28;8915;-65
2022/08/05 07:38:11;;;;;;;;;1.25;1.25;;;;;20.14;56.94;101729.34;5026862;28;8811;-64
2022/08/05 07:40:57;;;;;;;;;1.00;1.00;;;;;20.20;56.65;101738.47;5046127;28;8840;-65
2022/08/05 07:43:28;;;;;;;;;1.25;1.25;;;;;20.19;56.44;101737.66;5030898;28;8836;-65
2022/08/05 07:45:54;;;;;;;;;1.00;1.00;;;;;20.18;55.36;101744.19;5030166;28;8823;-65
2022/08/05 07:48:23;;;;;;;;;0.00;0.00;;;;;20.15;54.56;101741.94;5045072;28;8826;-64
2022/08/05 07:51:09;;;;;;;;;0.50;0.00;;;;;20.15;54.24;101750.13;5029707;28;8849;-65
2022/08/05 07:53:56;;;;;;;;;0.00;0.00;;;;;20.11;54.23;101756.31;5029186;28;8830;-65
2022/08/05 07:56:23;;;;;;;;;1.00;1.00;;;;;20.06;54.45;101767.97;5027315;28;8838;-65
2022/08/05 07:59:09;;;;;;;;;1.00;1.00;;;;;19.99;54.77;101762.59;5026512;28;8943;-65
2022/08/05 08:01:37;;;;;;;;;0.00;0.00;;;;;19.96;55.12;101756.75;5028218;28;8862;-64
2022/08/05 08:04:17;;;;;;;;;1.75;0.00;;;;;20.00;55.49;101771.63;5043506;28;9583;-64
2022/08/05 08:07:04;;;;;;;;;0.50;0.50;;;;;20.02;55.37;101771.41;5029895;28;9584;-65
2022/08/05 08:09:33;;;;;;;;;0.25;0.25;;;;;19.95;54.07;101780.50;5021156;28;8840;-65
2022/08/05 08:11:59;;;;;;;;;0.75;0.75;;;;;19.94;53.81;101778.03;5013115;28;8952;-65
2022/08/05 08:14:44;;;;;;;;;0.50;0.50;;;;;19.91;53.36;101784.78;5025506;28;8856;-65
2022/08/05 08:17:12;;;;;;;;;0.00;0.00;;;;;19.94;53.09;101784.31;5018325;28;9576;-65
2022/08/05 08:19:43;;;;;;;;;0.50;0.00;;;;;19.95;52.35;101785.16;5017516;28;8866;-65
2022/08/05 08:22:30;;;;;;;;;0.50;0.50;;;;;20.00;52.69;101786.09;5027015;28;8819;-65
2022/08/05 08:24:58;;;;;;;;;0.00;0.00;;;;;20.08;52.72;101784.09;5020620;28;8853;-65
2022/08/05 08:27:29;;;;;;;;;0.00;0.00;;;;;20.16;52.67;101786.50;5021019;28;8930;-65
2022/08/05 08:30:14;;;;;;;;;0.00;0.00;;;;;20.20;52.30;101790.44;5026482;28;8864;-65
2022/08/05 08:33:00;;;;;;;;;1.00;1.00;;;;;20.22;51.79;101791.03;5029911;28;8893;-65
2022/08/05 08:35:34;;;;;;;;;0.00;0.00;;;;;20.21;50.77;101792.91;5030020;28;8815;-65
2022/08/05 08:38:17;;;;;;;;;0.00;0.00;;;;;20.27;50.05;101787.59;5016888;28;9614;-66
2022/08/05 08:41:09;;;;;;;;;1.00;0.00;;;;;20.18;47.63;101796.16;5036478;28;8959;-65
2022/08/05 08:43:40;;;;;;;;;0.00;0.00;;;;;20.19;47.90;101788.78;5030661;28;9541;-65
2022/08/05 08:46:29;;;;;;;;;0.00;0.00;;;;;20.28;48.05;101797.47;5030231;28;8834;-65
2022/08/05 08:48:57;;;;;;;;;0.00;0.00;;;;;20.29;46.77;101797.22;5028068;28;8818;-65
2022/08/05 08:51:47;;;;;;;;;1.00;1.00;;;;;20.31;46.06;101794.25;5030314;28;8944;-65
2022/08/05 08:54:30;;;;;;;;;0.00;0.00;;;;;20.29;44.76;101807.31;5028095;28;8830;-67
2022/08/05 08:56:58;;;;;;;;;0.00;0.00;;;;;20.32;44.43;101809.59;5028054;28;8866;-65
2022/08/05 08:59:24;;;;;;;;;0.00;0.00;;;;;20.36;43.92;101805.31;5034527;28;8818;-65
2022/08/05 09:02:03;;;;;;;;;0.00;0.00;;;;;20.40;45.17;101809.25;5025859;28;8820;-65
2022/08/05 09:04:36;;;;;;;;;0.00;0.00;;;;;20.41;45.24;101813.63;5028870;28;8812;-65
2022/08/05 09:07:23;;;;;;;;;0.00;0.00;;;;;20.41;44.84;101825.41;5013243;28;8809;-65
2022/08/05 09:10:05;;;;;;;;;0.00;0.00;;;;;20.44;44.99;101826.84;5014890;28;9618;-66
2022/08/05 09:12:33;;;;;;;;;0.00;0.00;;;;;20.44;43.73;101829.59;5022062;28;8940;-65
2022/08/05 09:15:03;;;;;;;;;0.00;0.00;;;;;20.39;42.14;101827.56;5034380;28;8825;-65
2022/08/05 09:17:32;;;;;;;;;0.00;0.00;;;;;20.34;41.20;101823.88;5034035;28;8840;-65
2022/08/05 09:20:10;;;;;;;;;1.00;0.00;;;;;20.29;40.39;101827.28;5033973;28;8818;-66
2022/08/05 09:23:10;;;;;;;;;0.00;0.00;;;;;20.25;39.57;101826.94;5034723;28;8935;-65
2022/08/05 09:25:49;;;;;;;;;0.00;0.00;;;;;20.27;39.87;101843.13;5050644;28;8993;-65
2022/08/05 09:28:28;;;;;;;;;0.00;0.00;;;;;20.26;39.30;101841.44;5025031;28;8845;-65
2022/08/05 09:31:05;;;;;;;;;0.00;0.00;;;;;20.29;39.73;101846.44;5032913;28;8991;-65
2022/08/05 09:33:55;;;;;;;;;0.00;0.00;;;;;20.28;40.18;101839.31;5031070;28;9554;-66
2022/08/05 09:36:22;;;;;;;;;0.00;0.00;;;;;20.30;40.34;101842.66;5015255;28;8821;-65
2022/08/05 09:39:01;;;;;;;;;0.00;0.00;;;;;20.35;40.95;101836.47;5013366;28;8852;-66
2022/08/05 09:41:28;;;;;;;;;0.00;0.00;;;;;20.39;41.04;101846.69;5020519;28;9521;-65
2022/08/05 09:44:03;;;;;;;;;0.50;0.50;;;;;20.34;40.52;101841.13;5049761;28;8834;-66
2022/08/05 09:46:33;;;;;;;;;0.25;0.25;;;;;20.38;41.62;101847.78;5032375;28;8826;-66
2022/08/05 09:49:05;;;;;;;;;0.00;0.00;;;;;20.42;41.67;101853.63;5033562;28;8831;-66
2022/08/05 09:51:45;;;;;;;;;0.00;0.00;;;;;20.39;41.65;101852.16;5034419;28;8891;-65
2022/08/05 09:54:14;;;;;;;;;0.00;0.00;;;;;20.40;42.08;101858.47;5033856;28;8969;-66
2022/08/05 09:56:46;;;;;;;;;1.00;0.00;;;;;20.43;42.01;101856.09;5033026;28;9525;-66
2022/08/05 09:59:22;;;;;;;;;0.00;0.00;;;;;20.38;40.69;101857.88;5032481;28;8969;-66
2022/08/05 10:01:52;;;;;;;;;0.00;0.00;;;;;20.34;39.01;101862.16;5025612;28;8880;-65
2022/08/05 10:04:34;;;;;;;;;0.00;0.00;;;;;20.32;37.86;101869.75;5012602;28;8898;-65
2022/08/05 10:07:01;;;;;;;;;0.00;0.00;;;;;20.29;37.02;101873.78;5026809;28;8822;-65
2022/08/05 10:09:55;;;;;;;;;0.00;0.00;;;;;20.22;36.46;101881.25;5032997;28;9930;-66
2022/08/05 10:12:45;;;;;;;;;0.00;0.00;;;;;20.21;37.67;101874.94;5032467;28;8818;-66
2022/08/05 10:15:21;;;;;;;;;0.50;0.00;;;;;20.23;38.82;101875.56;5024927;28;8873;-65
2022/08/05 10:18:10;;;;;;;;;0.00;0.00;;;;;20.26;39.23;101877.00;5024585;28;8828;-65
2022/08/05 10:20:48;;;;;;;;;0.00;0.00;;;;;20.33;39.82;101883.19;5042234;28;8846;-65
2022/08/05 10:23:18;;;;;;;;;0.00;0.00;;;;;20.37;40.33;101889.84;5032521;28;9632;-66
2022/08/05 10:26:07;;;;;;;;;0.00;0.00;;;;;20.34;41.16;101893.06;5013017;28;8805;-65
2022/08/05 10:28:42;;;;;;;;;0.00;0.00;;;;;20.37;41.55;101899.94;5021398;28;8976;-65
2022/08/05 10:31:12;;;;;;;;;1.00;0.00;;;;;20.33;41.55;101898.75;5032232;28;8856;-66
2022/08/05 10:33:58;;;;;;;;;0.00;0.00;;;;;20.32;42.45;101894.34;5032842;28;8945;-65
2022/08/05 10:36:26;;;;;;;;;0.00;0.00;;;;;20.37;42.92;101903.53;5032183;28;8825;-65
2022/08/05 10:39:02;;;;;;;;;0.50;0.50;;;;;20.29;42.22;101906.59;5031873;28;8818;-66
2022/08/05 10:42:14;;;;;;;;;0.00;0.00;;;;;20.29;42.35;101905.75;5032048;28;8892;-65
2022/08/05 10:44:58;;;;;;;;;0.50;0.50;;;;;20.27;43.09;101913.38;5028781;28;8876;-65
2022/08/05 10:47:35;;;;;;;;;0.00;0.00;;;;;20.20;43.61;101917.03;5013929;28;8837;-65
2022/08/05 10:50:11;;;;;;;;;0.50;0.50;;;;;20.23;44.12;101921.22;5030357;28;8895;-65
2022/08/05 10:52:58;;;;;;;;;0.00;0.00;;;;;20.26;44.40;101931.69;5030188;28;8834;-65
2022/08/05 10:55:26;;;;;;;;;0.75;0.75;;;;;20.27;44.07;101929.78;5031531;28;8992;-65
2022/08/05 10:58:09;;;;;;;;;0.00;0.00;;;;;20.23;44.24;101943.06;5022312;28;9538;-65
2022/08/05 11:00:37;;;;;;;;;0.00;0.00;;;;;20.25;46.05;101941.78;5026681;28;8945;-65
2022/08/05 11:03:11;;;;;;;;;0.00;0.00;;;;;20.25;45.85;101940.94;5031841;28;8834;-65
2022/08/05 11:06:06;;;;;;;;;0.25;0.25;;;;;20.24;46.28;101951.03;5032167;28;8818;-66
2022/08/05 11:09:19;;;;;;;;;0.00;0.00;;;;;20.29;46.08;101952.25;5031163;28;8853;-66
2022/08/05 11:12:30;;;;;;;;;0.00;0.00;;;;;20.34;45.87;101952.41;5040234;28;8918;-64
2022/08/05 11:15:07;;;;;;;;;1.50;0.00;;;;;20.31;45.65;101947.38;5046614;28;8984;-66
2022/08/05 11:17:53;;;;;;;;;0.00;0.00;;;;;20.21;45.98;101954.22;5026734;28;8820;-67
2022/08/05 11:20:46;;;;;;;;;0.00;0.00;;;;;20.13;46.67;101953.72;5025132;28;8832;-66
2022/08/05 11:23:33;;;;;;;;;0.00;0.00;;;;;20.16;47.23;101966.94;5011316;28;8817;-66
2022/08/05 11:26:22;;;;;;;;;0.00;0.00;;;;;20.19;46.95;101967.31;5026891;28;8846;-66
2022/08/05 11:29:02;;;;;;;;;0.00;0.00;;;;;20.19;47.31;101975.50;5031470;28;8838;-65
2022/08/05 11:31:39;;;;;;;;;0.00;0.00;;;;;20.17;47.35;101972.16;5032089;28;8908;-65
2022/08/05 11:34:36;;;;;;;;;0.00;0.00;;;;;20.09;47.93;101986.13;5028546;28;8880;-64
2022/08/05 11:37:03;;;;;;;;;0.00;0.00;;;;;20.04;48.22;101991.47;5025588;28;8814;-64
2022/08/05 11:39:50;;;;;;;;;0.00;0.00;;;;;20.05;48.44;101986.84;5026689;28;9680;-65
2022/08/05 11:42:23;;;;;;;;;0.00;0.00;;;;;20.04;47.90;101990.63;5027984;28;8823;-65
2022/08/05 11:45:01;;;;;;;;;0.50;0.00;;;;;20.05;47.50;101998.59;5029380;28;8810;-65
2022/08/05 11:47:29;;;;;;;;;0.00;0.00;;;;;20.10;47.21;102003.41;5022415;28;8965;-66
2022/08/05 11:50:16;;;;;;;;;0.00;0.00;;;;;20.15;47.47;102006.28;5030697;28;8942;-66
2022/08/05 11:52:43;;;;;;;;;0.00;0.00;;;;;20.17;47.75;102010.44;5031493;28;8826;-66
2022/08/05 11:55:14;;;;;;;;;1.25;0.75;;;;;20.22;47.75;102005.13;5030325;28;8850;-65
2022/08/05 11:57:44;;;;;;;;;2.00;1.00;;;;;20.26;47.47;102008.25;5030162;28;8840;-66
2022/08/05 12:00:31;;;;;;;;;1.00;1.00;;;;;20.25;47.49;102004.69;5026355;28;8810;-65
2022/08/05 12:03:21;;;;;;;;;0.00;0.00;;;;;20.30;47.84;102009.44;5031513;28;8818;-66
2022/08/05 12:06:03;;;;;;;;;0.00;0.00;;;;;20.29;47.62;102009.66;5028417;28;8826;-65
2022/08/05 12:08:56;;;;;;;;;2.00;0.50;;;;;20.29;47.33;102010.50;5031337;28;8912;-65
2022/08/05 12:11:30;;;;;;;;;0.00;0.00;;;;;20.36;47.66;102013.16;5029068;28;8941;-61
2022/08/05 12:14:09;;;;;;;;;0.00;0.00;;;;;20.53;46.99;102013.38;5030706;28;8825;-65
2022/08/05 12:16:38;;;;;;;;;1.00;0.00;;;;;20.56;45.74;102011.00;5030703;28;8857;-65
2022/08/05 12:19:07;;;;;;;;;1.00;0.25;;;;;20.62;45.53;102023.78;5032647;28;8868;-67
2022/08/05 12:21:41;;;;;;;;;0.00;0.00;;;;;20.65;45.42;102014.25;5031186;28;8826;-67
2022/08/05 12:24:17;;;;;;;;;1.75;0.00;;;;;20.64;45.22;102016.16;5031687;28;8877;-66